Time;durP1;ratioP1;P1;durP2;ratioP2;P2;SDS_P1;SDS_P2;PMS_P1;PMS_P2;Temp;Humidity;BMP_temperature;BMP_pressure;BME280_temperature;BME280_humidity;BME280_pressure;Samples;Min_cycle;Max_cycle;Signal;HPM_P1;HPM_P2
2022/05/30 00:00:27;;;;;;;2.23;1.00;;;5.60;99.90;;;;;;5003819;28;20262;-68
2022/05/30 00:02:53;;;;;;;6.23;1.23;;;5.60;99.90;;;;;;5007271;28;20206;-68
2022/05/30 00:05:21;;;;;;;2.40;1.00;;;5.60;99.90;;;;;;4995075;28;20434;-68
2022/05/30 00:07:47;;;;;;;1.60;0.80;;;5.50;99.90;;;;;;5006741;28;20207;-68
2022/05/30 00:10:14;;;;;;;1.73;0.83;;;5.40;99.90;;;;;;5006887;28;20452;-68
2022/05/30 00:12:39;;;;;;;1.70;0.80;;;5.40;99.90;;;;;;5006514;28;20201;-68
2022/05/30 00:15:08;;;;;;;3.37;1.27;;;5.40;99.90;;;;;;5007611;28;20513;-68
2022/05/30 00:17:33;;;;;;;2.90;0.80;;;5.40;99.90;;;;;;5006657;28;20723;-68
2022/05/30 00:19:59;;;;;;;3.17;1.07;;;5.30;99.90;;;;;;5006141;28;20529;-67
2022/05/30 00:22:25;;;;;;;8.03;1.50;;;5.30;99.90;;;;;;5006553;28;20561;-69
2022/05/30 00:24:51;;;;;;;1.77;0.93;;;5.20;99.90;;;;;;4997785;28;20195;-66
2022/05/30 00:27:18;;;;;;;2.17;0.90;;;5.10;99.90;;;;;;5007083;28;20421;-67
2022/05/30 00:29:44;;;;;;;1.83;0.80;;;5.10;99.90;;;;;;5006730;28;20226;-67
2022/05/30 00:32:11;;;;;;;5.33;1.33;;;5.00;99.90;;;;;;5006369;28;20444;-67
2022/05/30 00:34:37;;;;;;;2.93;1.00;;;5.00;99.90;;;;;;5006942;28;20425;-68
2022/05/30 00:37:03;;;;;;;2.10;1.20;;;4.90;99.90;;;;;;4993262;28;20426;-66
2022/05/30 00:39:29;;;;;;;1.70;0.90;;;4.90;99.90;;;;;;4998009;28;20455;-68
2022/05/30 00:42:10;;;;;;;2.33;1.00;;;4.90;99.90;;;;;;4998206;28;20506;-67
2022/05/30 00:44:36;;;;;;;3.10;1.20;;;4.90;99.90;;;;;;5007214;28;20414;-68
2022/05/30 00:47:02;;;;;;;3.20;1.50;;;4.80;99.90;;;;;;4993342;28;20417;-68
2022/05/30 00:49:28;;;;;;;2.73;1.30;;;4.80;99.90;;;;;;4998617;28;20477;-70
2022/05/30 00:51:56;;;;;;;2.10;0.90;;;4.80;99.90;;;;;;4999803;28;20231;-67
2022/05/30 00:54:31;;;;;;;2.53;0.93;;;4.80;99.90;;;;;;4999370;28;20190;-68
2022/05/30 00:57:00;;;;;;;3.00;1.30;;;4.80;99.90;;;;;;4993560;28;20426;-68
2022/05/30 00:59:26;;;;;;;7.17;1.43;;;4.90;99.90;;;;;;5005932;28;20457;-67
2022/05/30 01:01:52;;;;;;;1.90;0.80;;;4.90;99.90;;;;;;5004601;28;20433;-68
2022/05/30 01:07:08;;;;;;;2.23;1.10;;;5.00;99.90;;;;;;4993165;28;21160;-67
2022/05/30 01:09:41;;;;;;;3.30;1.23;;;4.90;99.90;;;;;;5005414;28;20469;-67
2022/05/30 01:12:12;;;;;;;2.50;1.00;;;4.90;99.90;;;;;;5005862;28;20425;-67
2022/05/30 01:14:42;;;;;;;1.60;1.00;;;4.90;99.90;;;;;;4994469;28;20433;-66
2022/05/30 01:17:11;;;;;;;3.50;0.90;;;4.80;99.90;;;;;;5005871;28;20426;-67
2022/05/30 01:20:06;;;;;;;3.30;1.40;;;4.80;99.90;;;;;;5000121;28;21220;-66
2022/05/30 01:23:03;;;;;;;1.80;1.10;;;4.80;99.90;;;;;;5004400;28;20968;-67
2022/05/30 01:25:49;;;;;;;2.00;1.07;;;4.70;99.90;;;;;;4998357;28;20435;-68
2022/05/30 01:28:40;;;;;;;3.00;1.30;;;4.70;99.90;;;;;;5017322;28;20560;-68
2022/05/30 01:31:07;;;;;;;2.80;1.37;;;4.70;99.90;;;;;;4996641;28;20961;-69
2022/05/30 01:33:32;;;;;;;2.93;1.30;;;4.70;99.90;;;;;;4990800;28;20418;-69
2022/05/30 01:35:58;;;;;;;4.43;1.53;;;4.70;99.90;;;;;;5003512;28;20503;-67
2022/05/30 01:38:24;;;;;;;5.13;1.53;;;4.70;99.90;;;;;;4991415;28;20206;-66
2022/05/30 01:40:50;;;;;;;2.10;1.07;;;4.70;99.90;;;;;;5000100;28;20218;-67
2022/05/30 01:43:17;;;;;;;1.90;1.23;;;4.70;99.90;;;;;;5004851;28;20433;-68
2022/05/30 01:45:43;;;;;;;1.93;1.10;;;4.70;99.90;;;;;;4992660;28;20426;-66
2022/05/30 01:48:08;;;;;;;2.17;1.23;;;4.60;99.90;;;;;;4993750;28;20455;-67
2022/05/30 01:50:34;;;;;;;3.00;1.40;;;4.60;99.90;;;;;;4998768;28;21218;-68
2022/05/30 01:53:00;;;;;;;2.40;1.00;;;4.60;99.90;;;;;;4994321;28;20184;-67
2022/05/30 01:55:26;;;;;;;4.10;1.23;;;4.60;99.90;;;;;;4992954;28;20244;-67
2022/05/30 01:57:52;;;;;;;1.90;1.00;;;4.60;99.90;;;;;;5005694;28;20194;-66
2022/05/30 02:00:17;;;;;;;2.80;1.20;;;4.60;99.90;;;;;;5000357;28;20222;-66
2022/05/30 02:02:43;;;;;;;2.67;1.33;;;4.60;99.90;;;;;;4995311;28;20196;-68
2022/05/30 02:05:10;;;;;;;2.50;1.30;;;4.50;99.90;;;;;;4999194;28;20186;-67
2022/05/30 02:07:36;;;;;;;4.03;1.13;;;4.50;99.90;;;;;;4984330;28;20454;-67
2022/05/30 02:10:03;;;;;;;2.10;1.20;;;4.50;99.90;;;;;;4998301;28;20453;-67
2022/05/30 02:12:29;;;;;;;4.93;1.20;;;4.50;99.90;;;;;;5004464;28;20422;-68
2022/05/30 02:14:55;;;;;;;3.73;1.40;;;4.50;99.90;;;;;;5005358;28;20424;-67
2022/05/30 02:17:20;;;;;;;2.80;1.30;;;4.50;99.90;;;;;;5005311;28;20205;-69
2022/05/30 02:19:46;;;;;;;2.00;1.00;;;4.40;99.90;;;;;;5003446;28;20972;-69
2022/05/30 02:22:14;;;;;;;4.53;1.90;;;4.40;99.90;;;;;;5001161;28;20186;-70
2022/05/30 02:24:41;;;;;;;3.30;1.07;;;4.40;99.90;;;;;;5006097;28;20573;-69
2022/05/30 02:27:08;;;;;;;3.70;1.70;;;4.40;99.90;;;;;;5005191;28;20426;-69
2022/05/30 02:29:34;;;;;;;2.60;1.50;;;4.30;99.90;;;;;;5003271;28;20477;-68
2022/05/30 02:32:00;;;;;;;2.40;1.10;;;4.30;99.90;;;;;;5004341;28;20430;-69
2022/05/30 02:37:11;;;;;;;3.80;1.80;;;4.30;99.90;;;;;;5008583;28;20712;-69
2022/05/30 02:39:36;;;;;;;4.00;1.90;;;4.30;99.90;;;;;;5008851;28;20457;-67
2022/05/30 02:42:04;;;;;;;1.97;1.13;;;4.30;99.90;;;;;;5003617;28;20430;-70
2022/05/30 02:44:29;;;;;;;2.87;1.40;;;4.20;99.90;;;;;;4996552;28;20274;-69
2022/05/30 02:46:59;;;;;;;8.23;1.63;;;4.30;99.90;;;;;;5008870;28;20896;-69
2022/05/30 02:49:26;;;;;;;2.53;1.67;;;4.30;99.90;;;;;;5003153;28;20226;-69
2022/05/30 02:51:52;;;;;;;2.83;1.50;;;4.10;99.90;;;;;;5001871;28;20453;-69
2022/05/30 02:54:18;;;;;;;12.73;2.03;;;4.10;99.90;;;;;;4993066;28;20455;-69
2022/05/30 02:56:49;;;;;;;2.80;1.40;;;4.10;99.90;;;;;;5002008;28;20187;-69
2022/05/30 02:59:16;;;;;;;4.00;1.50;;;4.10;99.90;;;;;;4997642;28;20221;-70
2022/05/30 03:01:41;;;;;;;4.60;2.10;;;4.10;99.90;;;;;;5008716;28;20426;-68
2022/05/30 03:04:07;;;;;;;3.70;2.00;;;4.10;99.90;;;;;;4998998;28;20431;-66
2022/05/30 03:06:33;;;;;;;2.20;1.23;;;4.10;99.90;;;;;;4998835;28;20274;-67
2022/05/30 03:08:59;;;;;;;2.20;1.33;;;4.10;99.90;;;;;;5006025;28;20676;-68
2022/05/30 03:11:25;;;;;;;4.23;1.63;;;4.10;99.90;;;;;;5007928;28;20421;-65
2022/05/30 03:13:52;;;;;;;2.27;1.10;;;4.10;99.90;;;;;;5005943;28;20780;-67
2022/05/30 03:16:18;;;;;;;2.00;1.10;;;4.00;99.90;;;;;;4998664;28;20422;-67
2022/05/30 03:18:44;;;;;;;1.80;1.10;;;4.10;99.90;;;;;;5008115;28;20457;-66
2022/05/30 03:21:10;;;;;;;2.43;1.40;;;4.00;99.90;;;;;;5005765;28;20500;-67
2022/05/30 03:23:36;;;;;;;5.43;1.40;;;4.10;99.90;;;;;;5001030;28;20233;-69
2022/05/30 03:26:03;;;;;;;3.90;2.10;;;4.10;99.90;;;;;;5000314;28;20448;-68
2022/05/30 03:28:31;;;;;;;2.03;1.07;;;4.10;99.90;;;;;;5006791;28;20977;-67
2022/05/30 03:30:57;;;;;;;2.53;1.50;;;4.00;99.90;;;;;;5002668;28;20449;-67
2022/05/30 03:33:23;;;;;;;3.20;1.90;;;3.90;99.90;;;;;;5006196;28;20418;-69
2022/05/30 03:35:49;;;;;;;2.30;1.23;;;3.90;99.90;;;;;;4991686;28;20481;-68
2022/05/30 03:38:14;;;;;;;2.07;1.10;;;3.80;99.90;;;;;;4998234;28;20203;-70
2022/05/30 03:40:40;;;;;;;5.67;1.87;;;3.80;99.90;;;;;;5006760;28;20222;-69
2022/05/30 03:43:09;;;;;;;3.33;1.43;;;3.80;99.90;;;;;;5001276;28;20192;-70
2022/05/30 03:45:37;;;;;;;3.60;1.83;;;3.80;99.90;;;;;;5001771;28;20187;-69
2022/05/30 03:48:02;;;;;;;4.70;1.53;;;3.70;99.90;;;;;;5001240;28;20970;-70
2022/05/30 03:50:28;;;;;;;3.03;1.47;;;3.70;99.90;;;;;;4997228;28;20461;-71
2022/05/30 03:52:54;;;;;;;2.50;1.47;;;3.70;99.90;;;;;;5000480;28;20423;-69
2022/05/30 03:55:22;;;;;;;3.13;1.53;;;3.70;99.90;;;;;;4994395;28;20191;-70
2022/05/30 03:57:48;;;;;;;3.10;1.60;;;3.70;99.90;;;;;;4988289;28;20299;-69
2022/05/30 04:00:16;;;;;;;3.00;1.43;;;3.70;99.90;;;;;;5001231;28;20599;-69
2022/05/30 04:02:43;;;;;;;2.60;1.07;;;3.70;99.90;;;;;;5004696;28;20194;-67
2022/05/30 04:05:09;;;;;;;1.70;1.00;;;3.80;99.90;;;;;;4996489;28;20460;-66
2022/05/30 04:07:36;;;;;;;2.07;1.10;;;3.80;99.90;;;;;;5010312;28;20438;-66
2022/05/30 04:10:02;;;;;;;2.57;1.37;;;3.80;99.90;;;;;;5001821;28;20454;-67
2022/05/30 04:12:28;;;;;;;7.63;1.67;;;3.80;99.90;;;;;;5001263;28;20933;-66
2022/05/30 04:14:55;;;;;;;5.67;1.40;;;3.80;99.90;;;;;;4999526;28;20422;-67
2022/05/30 04:17:22;;;;;;;2.97;1.57;;;3.80;99.90;;;;;;5002420;28;20229;-66
2022/05/30 04:19:48;;;;;;;3.90;1.90;;;3.80;99.90;;;;;;5005809;28;20912;-67
2022/05/30 04:22:14;;;;;;;2.37;1.20;;;3.80;99.90;;;;;;5006462;28;20441;-65
2022/05/30 04:24:40;;;;;;;1.70;1.20;;;3.80;99.90;;;;;;5010157;28;20187;-67
2022/05/30 04:27:05;;;;;;;2.97;1.53;;;3.90;99.90;;;;;;5007005;28;20422;-67
2022/05/30 04:29:31;;;;;;;3.27;1.40;;;3.90;99.90;;;;;;5003978;28;20702;-66
2022/05/30 04:31:58;;;;;;;3.60;1.90;;;4.00;99.90;;;;;;5004879;28;20186;-65
2022/05/30 04:34:24;;;;;;;2.00;1.40;;;4.10;99.90;;;;;;5007387;28;20430;-67
2022/05/30 04:36:50;;;;;;;4.10;1.83;;;4.20;99.90;;;;;;5006543;28;20424;-67
2022/05/30 04:39:15;;;;;;;3.30;1.50;;;4.20;99.90;;;;;;4994022;28;20241;-67
2022/05/30 04:41:41;;;;;;;2.57;1.30;;;4.20;99.90;;;;;;5006180;28;20282;-69
2022/05/30 04:44:07;;;;;;;3.63;2.00;;;4.30;99.90;;;;;;5007016;28;20325;-66
2022/05/30 04:46:34;;;;;;;2.10;1.57;;;4.40;99.90;;;;;;4996803;28;20918;-66
2022/05/30 04:49:00;;;;;;;1.83;1.13;;;4.40;99.90;;;;;;5006539;28;20764;-67
2022/05/30 04:51:26;;;;;;;5.10;1.60;;;4.50;99.90;;;;;;5000949;28;20518;-67
2022/05/30 04:53:51;;;;;;;5.90;2.00;;;4.60;99.90;;;;;;4999564;28;20422;-69
2022/05/30 04:56:19;;;;;;;3.43;2.13;;;4.70;99.90;;;;;;4999389;28;20495;-68
2022/05/30 04:58:46;;;;;;;3.90;2.20;;;4.70;99.90;;;;;;4999737;28;20210;-68
2022/05/30 05:01:12;;;;;;;2.80;1.60;;;4.80;99.90;;;;;;5002365;28;20469;-70
2022/05/30 05:03:39;;;;;;;6.57;1.90;;;4.80;99.90;;;;;;4993975;28;20525;-69
2022/05/30 05:06:17;;;;;;;13.30;1.87;;;4.90;99.90;;;;;;5006288;28;20621;-70
2022/05/30 05:08:50;;;;;;;3.13;2.10;;;5.00;99.90;;;;;;4995477;28;20474;-70
2022/05/30 05:11:30;;;;;;;3.90;1.80;;;5.00;99.90;;;;;;4998558;28;20862;-70
2022/05/30 05:13:56;;;;;;;4.63;1.83;;;5.10;99.90;;;;;;4998348;28;20871;-69
2022/05/30 05:16:29;;;;;;;4.13;1.83;;;5.20;99.90;;;;;;4996292;28;20501;-70
2022/05/30 05:18:55;;;;;;;5.40;3.10;;;5.30;99.90;;;;;;4996604;28;20473;-71
2022/05/30 05:21:26;;;;;;;3.43;2.27;;;5.50;99.90;;;;;;5000084;28;20536;-69
2022/05/30 05:23:52;;;;;;;5.40;2.77;;;5.50;99.90;;;;;;5005129;28;20436;-69
2022/05/30 05:26:19;;;;;;;4.20;2.07;;;5.50;99.90;;;;;;4998935;28;20441;-69
2022/05/30 05:28:45;;;;;;;3.50;2.07;;;5.70;99.90;;;;;;4999115;28;20588;-69
2022/05/30 05:31:21;;;;;;;4.50;2.50;;;5.80;99.90;;;;;;5003266;28;21163;-69
2022/05/30 05:33:46;;;;;;;4.80;2.10;;;5.90;99.90;;;;;;4992296;28;20423;-69
2022/05/30 05:36:17;;;;;;;11.07;2.00;;;6.10;99.90;;;;;;4998298;28;20441;-70
2022/05/30 05:38:42;;;;;;;5.47;2.43;;;6.20;99.90;;;;;;4992309;28;20213;-69
2022/05/30 05:41:08;;;;;;;12.70;2.30;;;6.20;99.90;;;;;;4991328;28;20435;-70
2022/05/30 05:43:34;;;;;;;6.80;2.30;;;6.30;99.90;;;;;;4997381;28;20703;-70
2022/05/30 05:45:59;;;;;;;4.17;2.17;;;6.40;99.90;;;;;;5000028;28;20302;-71
2022/05/30 05:48:25;;;;;;;4.60;2.27;;;6.60;99.90;;;;;;4999831;28;20268;-69
2022/05/30 05:50:50;;;;;;;5.57;1.97;;;6.70;99.90;;;;;;4994735;28;20579;-69
2022/05/30 05:53:16;;;;;;;4.90;2.07;;;6.80;99.90;;;;;;4990376;28;20560;-69
2022/05/30 05:55:42;;;;;;;3.20;1.80;;;7.00;99.90;;;;;;4988695;28;20188;-71
2022/05/30 05:58:07;;;;;;;4.50;1.77;;;7.00;99.90;;;;;;4998913;28;20191;-69
2022/05/30 06:00:34;;;;;;;5.53;1.63;;;7.30;99.90;;;;;;4994055;28;20203;-69
2022/05/30 06:02:59;;;;;;;3.47;1.40;;;7.40;99.90;;;;;;4991583;28;20625;-69
2022/05/30 06:05:26;;;;;;;5.00;1.97;;;7.50;99.90;;;;;;5000688;28;20461;-70
2022/05/30 06:07:52;;;;;;;3.60;2.33;;;7.60;99.90;;;;;;4999898;28;20277;-70
2022/05/30 06:10:18;;;;;;;6.17;2.43;;;7.70;99.90;;;;;;4999563;28;20440;-70
2022/05/30 06:12:45;;;;;;;3.30;1.70;;;7.90;99.90;;;;;;5003142;28;20462;-67
2022/05/30 06:15:17;;;;;;;4.73;2.60;;;8.00;99.90;;;;;;5000764;28;20277;-70
2022/05/30 06:17:44;;;;;;;9.53;2.20;;;8.10;99.90;;;;;;4999618;28;20432;-70
2022/05/30 06:20:13;;;;;;;5.13;2.10;;;8.20;99.90;;;;;;5001120;28;20437;-70
2022/05/30 06:22:39;;;;;;;3.80;2.23;;;8.20;99.90;;;;;;5003955;28;20428;-69
2022/05/30 06:25:05;;;;;;;5.40;2.40;;;8.30;99.90;;;;;;5001634;28;20419;-67
2022/05/30 06:27:32;;;;;;;29.03;1.63;;;8.40;99.90;;;;;;4998057;28;20558;-69
2022/05/30 06:29:58;;;;;;;3.53;1.80;;;8.50;99.90;;;;;;4992474;28;21914;-67
2022/05/30 06:32:24;;;;;;;5.40;1.33;;;8.60;99.90;;;;;;5003362;28;20433;-68
2022/05/30 06:34:49;;;;;;;2.47;1.20;;;8.70;99.90;;;;;;4999431;28;20999;-67
2022/05/30 06:37:15;;;;;;;4.33;1.50;;;8.80;99.90;;;;;;4994491;28;20191;-69
2022/05/30 06:39:40;;;;;;;2.73;1.60;;;9.00;99.90;;;;;;4993321;28;20242;-68
2022/05/30 06:42:11;;;;;;;3.33;1.50;;;9.10;99.90;;;;;;5002046;28;20194;-68
2022/05/30 06:44:37;;;;;;;3.23;1.57;;;9.30;99.90;;;;;;4990261;28;20730;-69
2022/05/30 06:47:10;;;;;;;3.50;1.60;;;9.50;99.90;;;;;;5001292;28;20477;-68
2022/05/30 06:49:36;;;;;;;3.23;2.00;;;9.70;99.90;;;;;;4996123;28;20598;-67
2022/05/30 06:52:02;;;;;;;3.50;1.50;;;9.80;99.90;;;;;;4995987;28;20421;-68
2022/05/30 06:54:28;;;;;;;3.83;1.60;;;10.10;99.90;;;;;;4994086;28;20447;-68
2022/05/30 06:59:37;;;;;;;2.80;1.20;;;10.40;96.80;;;;;;5003654;28;20237;-69
2022/05/30 07:02:05;;;;;;;5.13;1.00;;;10.60;96.00;;;;;;5002821;28;20961;-69
2022/05/30 07:04:32;;;;;;;4.30;1.37;;;10.80;95.70;;;;;;4994709;28;20258;-69
2022/05/30 07:07:02;;;;;;;2.27;0.90;;;11.10;93.60;;;;;;4997269;28;20447;-68
2022/05/30 07:09:27;;;;;;;1.90;0.80;;;11.20;92.80;;;;;;5002696;28;20972;-66
2022/05/30 07:11:53;;;;;;;1.93;0.83;;;11.40;92.20;;;;;;5006249;28;20425;-68
2022/05/30 07:14:19;;;;;;;2.37;1.17;;;11.60;91.50;;;;;;5006816;28;20186;-68
2022/05/30 07:16:45;;;;;;;3.10;0.77;;;11.80;90.80;;;;;;4998476;28;20210;-68
2022/05/30 07:19:10;;;;;;;6.00;1.07;;;12.00;90.60;;;;;;5002838;28;20977;-68
2022/05/30 07:21:38;;;;;;;2.50;1.07;;;12.40;89.90;;;;;;5001572;28;20230;-69
2022/05/30 07:24:04;;;;;;;5.73;1.30;;;12.80;88.10;;;;;;5006053;28;20195;-67
2022/05/30 07:26:30;;;;;;;4.83;1.40;;;13.00;90.30;;;;;;5008111;28;20450;-65
2022/05/30 07:28:55;;;;;;;10.73;0.90;;;13.50;85.80;;;;;;5009365;28;20510;-64
2022/05/30 07:31:25;;;;;;;3.20;1.07;;;13.80;83.50;;;;;;5007502;28;20179;-65
2022/05/30 07:33:51;;;;;;;5.67;1.10;;;13.90;84.80;;;;;;5007802;28;20190;-67
2022/05/30 07:36:35;;;;;;;2.60;1.37;;;14.80;83.20;;;;;;5006310;28;20426;-66
2022/05/30 07:39:01;;;;;;;1.90;1.00;;;16.50;77.50;;;;;;5004166;28;20452;-67
2022/05/30 07:41:29;;;;;;;2.80;1.20;;;17.00;77.70;;;;;;5003053;28;20422;-66
2022/05/30 07:43:55;;;;;;;3.93;1.43;;;18.00;72.20;;;;;;5007935;28;20207;-65
2022/05/30 07:46:21;;;;;;;7.30;0.90;;;18.60;67.50;;;;;;5008038;28;20445;-66
2022/05/30 07:48:47;;;;;;;2.47;1.23;;;19.20;68.60;;;;;;5007405;28;20218;-66
2022/05/30 07:51:14;;;;;;;2.33;0.97;;;19.70;65.20;;;;;;5007844;28;20189;-67
2022/05/30 07:53:41;;;;;;;4.53;1.30;;;20.50;63.90;;;;;;5008272;28;20932;-66
2022/05/30 07:56:10;;;;;;;4.17;1.03;;;20.80;62.00;;;;;;5007252;28;20440;-70
2022/05/30 07:58:39;;;;;;;3.20;1.00;;;20.20;62.60;;;;;;5007447;28;20480;-69
2022/05/30 08:01:06;;;;;;;3.93;0.80;;;20.30;61.60;;;;;;5002171;28;20429;-70
2022/05/30 08:03:32;;;;;;;5.73;1.60;;;20.10;63.30;;;;;;5004259;28;21142;-65
2022/05/30 08:06:08;;;;;;;2.10;1.10;;;20.40;62.80;;;;;;5006303;28;20186;-68
2022/05/30 08:08:33;;;;;;;2.70;1.00;;;19.90;60.50;;;;;;5002239;28;20209;-66
2022/05/30 08:10:59;;;;;;;2.47;1.00;;;19.80;61.00;;;;;;5001525;28;20179;-68
2022/05/30 08:13:25;;;;;;;3.13;0.90;;;19.70;60.80;;;;;;5003687;28;20182;-68
2022/05/30 08:15:50;;;;;;;1.90;0.97;;;19.50;62.10;;;;;;5004789;28;20179;-67
2022/05/30 08:18:18;;;;;;;1.73;0.83;;;20.30;60.80;;;;;;5003602;28;20290;-69
2022/05/30 08:20:44;;;;;;;3.30;1.33;;;19.60;60.80;;;;;;4999982;28;20257;-70
2022/05/30 08:23:10;;;;;;;2.53;0.90;;;19.40;65.00;;;;;;5001371;28;20191;-67
2022/05/30 08:25:39;;;;;;;4.73;1.47;;;20.20;64.20;;;;;;5005317;28;20862;-67
2022/05/30 08:28:06;;;;;;;2.67;1.10;;;21.10;62.40;;;;;;5011931;28;20232;-68
2022/05/30 08:30:31;;;;;;;4.80;1.00;;;20.60;61.90;;;;;;5007164;28;20285;-66
2022/05/30 08:32:57;;;;;;;3.63;1.13;;;20.60;62.50;;;;;;5005112;28;20579;-68
2022/05/30 08:35:23;;;;;;;2.43;0.90;;;21.90;59.60;;;;;;5006974;28;20189;-65
2022/05/30 08:37:49;;;;;;;3.03;1.40;;;20.80;62.30;;;;;;5005751;28;20334;-66
2022/05/30 08:43:15;;;;;;;7.33;1.17;;;20.30;60.30;;;;;;5002289;28;20571;-69
2022/05/30 08:45:41;;;;;;;2.00;0.97;;;19.70;58.70;;;;;;5005741;28;20182;-69
2022/05/30 08:48:21;;;;;;;2.00;1.07;;;20.60;57.20;;;;;;5004151;28;20699;-70
2022/05/30 08:50:51;;;;;;;2.97;1.47;;;21.00;59.20;;;;;;5001863;28;20651;-70
2022/05/30 08:53:26;;;;;;;8.73;1.80;;;21.70;57.00;;;;;;4999045;28;20234;-70
2022/05/30 08:55:58;;;;;;;2.50;0.97;;;21.60;58.80;;;;;;4998696;28;20183;-70
2022/05/30 08:58:50;;;;;;;3.13;1.40;;;21.00;59.00;;;;;;5000361;28;20190;-70
2022/05/30 09:01:57;;;;;;;4.80;1.07;;;20.80;58.20;;;;;;4999114;28;20578;-70
2022/05/30 09:04:27;;;;;;;4.13;0.93;;;20.90;57.50;;;;;;4998245;28;20190;-71
2022/05/30 09:06:58;;;;;;;2.20;1.10;;;21.50;55.30;;;;;;4999847;28;20190;-71
2022/05/30 09:09:53;;;;;;;2.33;1.00;;;21.90;53.90;;;;;;4993271;28;20226;-71
2022/05/30 09:12:44;;;;;;;8.70;1.13;;;21.90;54.10;;;;;;4995629;28;20202;-69
2022/05/30 09:15:23;;;;;;;2.20;1.30;;;20.50;56.40;;;;;;5002189;28;20277;-72
2022/05/30 09:17:52;;;;;;;3.03;1.00;;;20.70;57.10;;;;;;5004276;28;20201;-71
2022/05/30 09:20:20;;;;;;;2.00;1.03;;;21.10;56.40;;;;;;4996950;28;20217;-69
2022/05/30 09:22:47;;;;;;;6.60;1.70;;;21.30;57.70;;;;;;4993217;28;20536;-71
2022/05/30 09:28:18;;;;;;;4.87;1.53;;;21.70;54.30;;;;;;4994256;28;20554;-70
2022/05/30 09:30:49;;;;;;;6.33;1.70;;;21.10;55.30;;;;;;4995861;28;20671;-69
2022/05/30 09:33:40;;;;;;;2.37;1.00;;;20.00;56.70;;;;;;4996366;28;20194;-70
2022/05/30 09:36:24;;;;;;;2.30;1.03;;;19.90;57.30;;;;;;4998137;28;20190;-70
2022/05/30 09:39:00;;;;;;;2.10;1.07;;;19.70;57.20;;;;;;4995838;28;20206;-69
2022/05/30 09:41:30;;;;;;;2.27;1.10;;;20.40;56.60;;;;;;4997547;28;20503;-70
2022/05/30 09:44:20;;;;;;;2.13;0.90;;;20.00;58.30;;;;;;5002757;28;20861;-68
2022/05/30 09:47:01;;;;;;;2.63;1.30;;;20.50;56.20;;;;;;4998431;28;20900;-71
2022/05/30 09:49:48;;;;;;;1.80;0.90;;;21.10;53.80;;;;;;5000196;28;20329;-70
2022/05/30 09:52:32;;;;;;;2.47;1.10;;;21.30;54.20;;;;;;4998376;28;20210;-70
2022/05/30 09:54:58;;;;;;;5.83;1.20;;;20.90;54.20;;;;;;4997706;28;20414;-70
2022/05/30 09:57:28;;;;;;;5.53;1.20;;;19.90;53.40;;;;;;4993935;28;20422;-70
2022/05/30 09:59:57;;;;;;;1.80;0.97;;;19.00;55.20;;;;;;4999663;28;20505;-70
2022/05/30 10:02:34;;;;;;;2.43;1.23;;;18.30;57.00;;;;;;5009405;28;20438;-70
2022/05/30 10:05:02;;;;;;;4.90;1.07;;;17.90;57.60;;;;;;4993006;28;20436;-72
2022/05/30 10:07:28;;;;;;;10.00;1.60;;;17.50;58.40;;;;;;4992935;28;20805;-70
2022/05/30 10:10:21;;;;;;;3.00;1.07;;;17.30;59.50;;;;;;4999027;28;20498;-71
2022/05/30 10:13:00;;;;;;;1.97;1.10;;;17.20;58.20;;;;;;4998912;28;20480;-70
2022/05/30 10:15:35;;;;;;;3.40;1.00;;;16.70;60.80;;;;;;4997991;28;20432;-70
2022/05/30 10:18:13;;;;;;;3.47;1.10;;;16.70;58.60;;;;;;4991750;28;20437;-69
2022/05/30 10:20:41;;;;;;;3.83;1.10;;;16.20;60.20;;;;;;4993198;28;20442;-69
2022/05/30 10:29:55;;;;;;;2.57;1.00;;;15.60;60.90;;;;;;5004927;28;20495;-70
2022/05/30 10:32:32;;;;;;;3.87;0.80;;;15.60;60.00;;;;;;5004704;28;20944;-70
2022/05/30 10:35:16;;;;;;;8.20;0.80;;;15.90;62.00;;;;;;5003993;28;20426;-72
2022/05/30 10:37:57;;;;;;;7.37;1.30;;;16.40;59.40;;;;;;4999412;28;20509;-68
2022/05/30 10:40:27;;;;;;;1.70;0.90;;;16.80;60.60;;;;;;5005026;28;20541;-70
2022/05/30 10:43:13;;;;;;;3.30;1.23;;;17.10;60.60;;;;;;5005464;28;20467;-70
2022/05/30 10:45:55;;;;;;;3.10;1.00;;;17.70;57.50;;;;;;5009101;28;20531;-70
2022/05/30 10:48:44;;;;;;;3.40;1.10;;;18.00;55.40;;;;;;5008542;28;20465;-70
2022/05/30 10:51:16;;;;;;;4.40;1.00;;;17.80;54.70;;;;;;5009195;28;20441;-69
2022/05/30 10:54:03;;;;;;;5.00;1.60;;;18.20;52.90;;;;;;5008136;28;20449;-69
2022/05/30 10:56:36;;;;;;;2.53;1.00;;;17.90;53.90;;;;;;5008625;28;20417;-70
2022/05/30 10:59:39;;;;;;;3.63;1.03;;;17.90;56.60;;;;;;5005416;28;20453;-72
2022/05/30 11:02:15;;;;;;;2.97;0.90;;;18.20;58.30;;;;;;5004640;28;20428;-71
2022/05/30 11:04:56;;;;;;;1.80;0.80;;;18.50;56.70;;;;;;5007563;28;20579;-69
2022/05/30 11:07:45;;;;;;;1.60;0.60;;;18.00;55.40;;;;;;4999467;28;20723;-70
2022/05/30 11:10:32;;;;;;;5.33;1.13;;;17.60;56.00;;;;;;5002899;28;20480;-70
2022/05/30 11:13:15;;;;;;;5.17;1.30;;;17.20;56.50;;;;;;5012819;28;20911;-69
2022/05/30 11:16:07;;;;;;;4.23;0.80;;;16.90;59.20;;;;;;5003413;28;20769;-69
2022/05/30 11:18:49;;;;;;;3.20;1.10;;;17.10;56.70;;;;;;5012249;28;20507;-71
2022/05/30 11:21:36;;;;;;;4.47;1.07;;;17.20;57.70;;;;;;5004912;28;20441;-70
2022/05/30 11:24:04;;;;;;;5.00;0.90;;;17.60;54.80;;;;;;5005755;28;20736;-70
2022/05/30 11:27:04;;;;;;;3.03;0.90;;;17.60;55.30;;;;;;4999187;28;21078;-71
2022/05/30 11:29:53;;;;;;;2.07;0.70;;;17.40;57.10;;;;;;5001949;28;20471;-70
2022/05/30 11:32:49;;;;;;;3.83;0.73;;;17.40;56.80;;;;;;4989353;28;20533;-70
2022/05/30 11:35:32;;;;;;;3.30;0.80;;;17.70;57.90;;;;;;5008159;28;20496;-70
2022/05/30 11:37:58;;;;;;;2.43;0.83;;;18.20;54.30;;;;;;5007422;28;20429;-69
2022/05/30 11:40:29;;;;;;;2.27;0.93;;;18.30;53.70;;;;;;5008161;28;20457;-71
2022/05/30 11:43:07;;;;;;;4.50;0.80;;;17.40;55.80;;;;;;5007648;28;20190;-68
2022/05/30 11:46:05;;;;;;;2.23;0.93;;;16.70;56.60;;;;;;5008469;28;20430;-70
2022/05/30 11:48:44;;;;;;;3.90;0.97;;;17.20;55.40;;;;;;5004083;28;20473;-70
2022/05/30 11:51:25;;;;;;;4.23;1.10;;;17.70;54.30;;;;;;5008547;28;20430;-69
2022/05/30 11:53:53;;;;;;;2.47;1.13;;;17.60;53.50;;;;;;5007183;28;20468;-70
2022/05/30 11:56:31;;;;;;;3.23;1.40;;;17.80;54.60;;;;;;5007298;28;20742;-69
2022/05/30 11:59:27;;;;;;;8.03;2.33;;;18.00;53.50;;;;;;5004272;28;20449;-71
2022/05/30 12:01:58;;;;;;;2.63;0.90;;;18.20;53.70;;;;;;5007745;28;20430;-70
2022/05/30 12:05:02;;;;;;;5.73;2.37;;;18.30;53.40;;;;;;5008398;28;20924;-70
2022/05/30 12:07:43;;;;;;;5.07;1.30;;;18.50;53.10;;;;;;5000530;28;20426;-70
2022/05/30 12:11:03;;;;;;;2.63;1.10;;;19.10;51.40;;;;;;5007860;28;20501;-70
2022/05/30 12:13:38;;;;;;;3.30;0.83;;;18.90;52.60;;;;;;4977046;28;20430;-70
2022/05/30 12:16:31;;;;;;;6.23;1.10;;;19.00;53.50;;;;;;5004971;28;20528;-69
2022/05/30 12:24:56;;;;;;;5.70;1.03;;;19.40;52.30;;;;;;5003191;28;20476;-69
2022/05/30 12:27:30;;;;;;;1.60;0.77;;;19.90;50.90;;;;;;5005101;28;20515;-69
2022/05/30 12:29:57;;;;;;;7.53;0.90;;;19.80;50.50;;;;;;5005766;28;20988;-69
2022/05/30 12:32:36;;;;;;;2.43;1.00;;;19.70;51.70;;;;;;5003559;28;20796;-70
2022/05/30 12:35:14;;;;;;;2.70;1.27;;;19.30;51.10;;;;;;5006165;28;20428;-70
2022/05/30 12:37:45;;;;;;;2.23;1.00;;;19.30;52.60;;;;;;4999210;28;20436;-69
2022/05/30 12:40:13;;;;;;;8.43;1.10;;;19.20;51.50;;;;;;5005716;28;20453;-69
2022/05/30 12:42:45;;;;;;;2.23;0.80;;;18.70;53.00;;;;;;5005136;28;20503;-68
2022/05/30 12:45:20;;;;;;;3.60;1.17;;;19.00;52.50;;;;;;5002530;28;20462;-71
2022/05/30 12:47:52;;;;;;;4.80;0.90;;;18.70;54.10;;;;;;5005124;28;20429;-70
2022/05/30 12:50:42;;;;;;;1.87;0.97;;;18.80;51.80;;;;;;5005922;28;20437;-70
2022/05/30 12:53:08;;;;;;;1.93;0.70;;;19.00;51.90;;;;;;5001397;28;21063;-70
2022/05/30 12:55:44;;;;;;;2.13;1.03;;;18.60;52.50;;;;;;5005351;28;20501;-70
2022/05/30 12:58:13;;;;;;;2.83;1.03;;;18.20;52.40;;;;;;5003007;28;20183;-69
2022/05/30 13:00:42;;;;;;;5.23;1.60;;;17.90;53.40;;;;;;5006028;28;20742;-70
2022/05/30 13:03:31;;;;;;;2.20;1.00;;;18.00;55.70;;;;;;5001499;28;20409;-70
2022/05/30 13:06:19;;;;;;;2.00;0.70;;;18.60;52.90;;;;;;5004541;28;20943;-70
2022/05/30 13:08:45;;;;;;;4.50;1.23;;;18.60;53.00;;;;;;4996104;28;20509;-70
2022/05/30 13:11:21;;;;;;;1.73;0.90;;;18.80;54.10;;;;;;5004204;28;20421;-70
2022/05/30 13:13:53;;;;;;;4.43;1.57;;;19.20;52.70;;;;;;5004320;28;20577;-69
2022/05/30 13:16:31;;;;;;;10.60;2.20;;;19.50;52.50;;;;;;5005105;28;20422;-69
2022/05/30 13:18:57;;;;;;;1.93;0.87;;;19.80;50.20;;;;;;5005427;28;20461;-69
2022/05/30 13:21:28;;;;;;;3.37;1.20;;;19.80;49.50;;;;;;5002270;28;20890;-70
2022/05/30 13:23:53;;;;;;;5.13;1.33;;;19.70;49.00;;;;;;5003359;28;20422;-70
2022/05/30 13:26:19;;;;;;;3.03;1.10;;;19.50;49.00;;;;;;5003441;28;21245;-69
2022/05/30 13:28:49;;;;;;;2.70;1.37;;;19.20;49.80;;;;;;5002863;28;20226;-69
2022/05/30 13:31:15;;;;;;;6.03;1.27;;;19.20;49.50;;;;;;4999445;28;20241;-71
2022/05/30 13:33:48;;;;;;;2.27;0.80;;;18.70;52.30;;;;;;5000920;28;20418;-70
2022/05/30 13:36:29;;;;;;;8.57;1.70;;;18.70;52.00;;;;;;4997946;28;21007;-70
2022/05/30 13:38:56;;;;;;;2.53;1.20;;;19.00;52.00;;;;;;5003412;28;20441;-70